createdAt,value
2019-03-31T00:01:51.091Z,101585.95
2019-03-31T00:04:21.683Z,101585.95
2019-03-31T00:06:52.404Z,101594.39
2019-03-31T00:09:23.027Z,101597.10
2019-03-31T00:11:53.637Z,101579.92
2019-03-31T00:14:24.366Z,101579.92
2019-03-31T00:16:54.940Z,101597.16
2019-03-31T00:19:25.682Z,101594.25
2019-03-31T00:21:56.328Z,101598.98
2019-03-31T00:24:26.910Z,101602.69
2019-03-31T00:26:57.473Z,101608.02
2019-03-31T00:29:28.108Z,101602.53
2019-03-31T00:31:58.664Z,101603.82
2019-03-31T00:34:29.312Z,101602.64
2019-03-31T00:36:59.986Z,101610.66
2019-03-31T00:39:30.706Z,101597.56
2019-03-31T00:42:01.246Z,101600.29
2019-03-31T00:44:31.837Z,101603.94
2019-03-31T00:47:02.566Z,101600.04
2019-03-31T00:49:33.183Z,101596.80
2019-03-31T00:52:03.843Z,101611.45
2019-03-31T00:54:34.435Z,101611.36
2019-03-31T00:57:05.106Z,101610.21
2019-03-31T00:59:35.755Z,101610.27
2019-03-31T01:02:11.202Z,101612.48
2019-03-31T01:04:41.820Z,101614.87
2019-03-31T01:07:12.909Z,101620.23
2019-03-31T01:09:43.508Z,101623.66
2019-03-31T01:12:14.102Z,101628.83
2019-03-31T01:14:44.984Z,101635.81
2019-03-31T01:17:18.677Z,101638.31
2019-03-31T01:19:48.060Z,101635.49
2019-03-31T01:22:18.667Z,101635.02
2019-03-31T01:24:49.238Z,101634.95
2019-03-31T01:27:20.906Z,101632.63
2019-03-31T01:29:51.470Z,101636.09
2019-03-31T01:32:22.077Z,101646.33
2019-03-31T01:34:52.652Z,101646.94
2019-03-31T01:37:23.238Z,101653.23
2019-03-31T01:39:53.984Z,101655.21
2019-03-31T01:42:24.676Z,101660.77
2019-03-31T01:44:55.324Z,101661.02
2019-03-31T01:47:25.987Z,101664.56
2019-03-31T01:49:56.539Z,101664.59
2019-03-31T01:52:27.233Z,101658.59
2019-03-31T01:54:57.794Z,101664.76
2019-03-31T01:57:28.456Z,101669.95
2019-03-31T01:59:59.080Z,101674.00
2019-03-31T02:02:30.360Z,101666.73
2019-03-31T02:05:00.983Z,101666.23
2019-03-31T02:07:31.744Z,101668.91
2019-03-31T02:10:02.394Z,101671.89
2019-03-31T02:12:32.980Z,101671.41
2019-03-31T02:15:05.178Z,101677.56
2019-03-31T02:17:35.825Z,101682.14
2019-03-31T02:20:07.055Z,101676.12
2019-03-31T02:22:37.766Z,101675.94
2019-03-31T02:25:08.503Z,101675.89
2019-03-31T02:27:39.142Z,101676.26
2019-03-31T02:30:09.927Z,101673.48
2019-03-31T02:32:40.700Z,101678.32
2019-03-31T02:35:11.278Z,101687.08
2019-03-31T02:37:41.972Z,101688.63
2019-03-31T02:40:12.588Z,101693.16
2019-03-31T02:42:43.166Z,101696.47
2019-03-31T02:45:13.748Z,101691.41
2019-03-31T02:47:44.343Z,101690.47
2019-03-31T02:50:27.628Z,101696.77
2019-03-31T02:52:58.230Z,101698.41
2019-03-31T02:55:28.783Z,101699.98
2019-03-31T02:57:59.350Z,101693.18
2019-03-31T03:00:30.206Z,101697.91
2019-03-31T03:03:02.767Z,101696.97
2019-03-31T03:05:34.805Z,101703.08
2019-03-31T03:08:05.488Z,101693.88
2019-03-31T03:10:37.171Z,101701.70
2019-03-31T03:13:07.721Z,101703.96
2019-03-31T03:16:00.744Z,101709.41
2019-03-31T03:18:31.327Z,101707.17
2019-03-31T03:21:01.899Z,101708.92
2019-03-31T03:23:32.460Z,101705.30
2019-03-31T03:26:03.000Z,101711.28
2019-03-31T03:28:33.603Z,101699.52
2019-03-31T03:31:04.391Z,101702.95
2019-03-31T03:33:35.322Z,101711.02
2019-03-31T03:36:05.869Z,101702.20
2019-03-31T03:38:36.432Z,101707.98
2019-03-31T03:41:07.027Z,101706.34
2019-03-31T03:43:54.180Z,101705.68
2019-03-31T03:46:09.848Z,101711.75
2019-03-31T03:48:40.479Z,101720.09
2019-03-31T03:51:11.100Z,101715.53
2019-03-31T03:53:41.705Z,101715.23
2019-03-31T03:56:12.239Z,101718.33
2019-03-31T03:58:42.819Z,101711.72
2019-03-31T04:01:15.851Z,101720.17
2019-03-31T04:03:46.411Z,101722.45
2019-03-31T04:06:16.984Z,101723.19
2019-03-31T04:08:47.554Z,101729.25
2019-03-31T04:11:21.542Z,101726.47
2019-03-31T04:13:52.571Z,101726.58
2019-03-31T04:16:23.177Z,101731.20
2019-03-31T04:18:53.812Z,101732.97
2019-03-31T04:21:24.608Z,101730.19
2019-03-31T04:23:55.202Z,101737.30
2019-03-31T04:26:25.993Z,101729.16
2019-03-31T04:28:56.517Z,101734.95
2019-03-31T04:31:27.092Z,101731.30
2019-03-31T04:33:57.678Z,101730.06
2019-03-31T04:36:28.249Z,101732.54
2019-03-31T04:39:00.408Z,101729.66
2019-03-31T04:41:31.280Z,101739.48
2019-03-31T04:44:01.842Z,101735.66
2019-03-31T04:46:32.440Z,101741.63
2019-03-31T04:49:02.986Z,101746.28
2019-03-31T04:51:33.613Z,101746.39
2019-03-31T04:54:04.176Z,101753.92
2019-03-31T04:56:34.817Z,101754.53
2019-03-31T04:59:05.462Z,101751.15
2019-03-31T05:01:36.080Z,101756.48
2019-03-31T05:04:06.660Z,101756.68
2019-03-31T05:06:37.262Z,101761.54
2019-03-31T05:09:08.052Z,101768.03
2019-03-31T05:11:38.658Z,101768.30
2019-03-31T05:14:09.747Z,101772.33
2019-03-31T05:16:40.334Z,101779.34
2019-03-31T05:19:10.900Z,101784.92
2019-03-31T05:21:41.456Z,101787.20
2019-03-31T05:24:12.071Z,101793.30
2019-03-31T05:26:42.666Z,101800.42
2019-03-31T05:29:13.212Z,101800.84
2019-03-31T05:31:43.797Z,101798.02
2019-03-31T05:34:19.427Z,101803.91
2019-03-31T05:36:46.630Z,101809.23
2019-03-31T05:39:20.554Z,101816.07
2019-03-31T05:41:51.134Z,101823.48
2019-03-31T05:44:21.664Z,101823.23
2019-03-31T05:46:52.274Z,101832.00
2019-03-31T05:49:22.902Z,101837.17
2019-03-31T05:51:53.581Z,101833.81
2019-03-31T05:54:24.205Z,101838.58
2019-03-31T05:56:54.916Z,101843.35
2019-03-31T05:59:25.488Z,101846.27
2019-03-31T06:01:56.154Z,101860.58
2019-03-31T06:04:33.103Z,101854.36
2019-03-31T06:06:59.026Z,101856.09
2019-03-31T06:09:29.575Z,101861.08
2019-03-31T06:12:00.189Z,101868.45
2019-03-31T06:14:30.850Z,101867.06
2019-03-31T06:17:01.433Z,101869.61
2019-03-31T06:19:31.988Z,101871.30
2019-03-31T06:22:02.581Z,101871.79
2019-03-31T06:24:33.120Z,101878.14
2019-03-31T06:27:03.657Z,101886.52
2019-03-31T06:29:34.184Z,101895.63
2019-03-31T06:32:04.756Z,101900.87
2019-03-31T06:34:46.757Z,101913.04
2019-03-31T06:37:07.591Z,101915.88
2019-03-31T06:39:38.120Z,101912.19
2019-03-31T06:42:08.723Z,101908.99
2019-03-31T06:44:39.253Z,101918.92
2019-03-31T06:47:09.808Z,101921.11
2019-03-31T06:49:40.328Z,101916.92
2019-03-31T06:52:10.994Z,101918.45
2019-03-31T06:54:41.544Z,101923.16
2019-03-31T06:57:12.094Z,101930.39
2019-03-31T06:59:42.648Z,101938.59
2019-03-31T07:02:13.879Z,101957.61
2019-03-31T07:04:44.494Z,101948.36
2019-03-31T07:07:15.078Z,101948.16
2019-03-31T07:09:45.624Z,101947.95
2019-03-31T07:12:16.191Z,101955.78
2019-03-31T07:14:46.740Z,101958.13
2019-03-31T07:17:17.300Z,101967.77
2019-03-31T07:19:47.835Z,101975.80
2019-03-31T07:22:18.415Z,101978.66
2019-03-31T07:24:48.957Z,101974.23
2019-03-31T07:27:19.540Z,101984.39
2019-03-31T07:29:50.067Z,101986.27
2019-03-31T07:32:20.662Z,101990.95
2019-03-31T07:34:51.167Z,101995.69
2019-03-31T07:37:21.771Z,101992.77
2019-03-31T07:39:52.363Z,102001.65
2019-03-31T07:42:23.012Z,101994.95
2019-03-31T07:44:53.558Z,102000.20
2019-03-31T07:47:24.119Z,102001.28
2019-03-31T07:49:54.665Z,102007.08
2019-03-31T07:52:25.281Z,102002.56
2019-03-31T07:54:55.825Z,101996.34
2019-03-31T07:57:26.407Z,102003.13
2019-03-31T07:59:57.114Z,102008.78
2019-03-31T08:02:27.703Z,102005.30
2019-03-31T08:04:58.267Z,102004.13
2019-03-31T08:07:28.845Z,102004.66
2019-03-31T08:09:59.373Z,102016.73
2019-03-31T08:12:29.951Z,102020.42
2019-03-31T08:15:00.547Z,102022.03
2019-03-31T08:17:31.127Z,102022.48
2019-03-31T08:20:01.687Z,102024.85
2019-03-31T08:22:32.308Z,102029.20
2019-03-31T08:25:02.859Z,102038.30
2019-03-31T08:27:33.429Z,102042.30
2019-03-31T08:30:04.139Z,102041.09
2019-03-31T08:32:34.687Z,102042.91
2019-03-31T08:35:05.495Z,102042.09
2019-03-31T08:37:36.943Z,102040.13
2019-03-31T08:40:08.231Z,102045.27
2019-03-31T08:42:38.863Z,102044.41
2019-03-31T08:45:09.827Z,102043.88
2019-03-31T08:47:40.420Z,102048.68
2019-03-31T08:50:12.485Z,102048.53
2019-03-31T08:52:43.215Z,102054.27
2019-03-31T08:55:16.941Z,102057.18
2019-03-31T08:57:47.549Z,102054.98
2019-03-31T09:00:26.575Z,102064.42
2019-03-31T09:02:57.160Z,102066.18
2019-03-31T09:05:27.739Z,102065.69
2019-03-31T09:07:58.340Z,102073.22
2019-03-31T09:10:28.898Z,102069.09
2019-03-31T09:12:59.543Z,102073.19
2019-03-31T09:15:30.147Z,102073.38
2019-03-31T09:18:00.744Z,102086.19
2019-03-31T09:20:31.369Z,102078.83
2019-03-31T09:23:02.773Z,102086.84
2019-03-31T09:25:33.369Z,102085.94
2019-03-31T09:28:03.996Z,102078.88
2019-03-31T09:30:35.423Z,102083.75
2019-03-31T09:33:06.077Z,102093.47
2019-03-31T09:35:36.701Z,102099.50
2019-03-31T09:38:07.313Z,102102.16
2019-03-31T09:40:37.929Z,102099.62
2019-03-31T09:43:12.733Z,102095.06
2019-03-31T09:45:44.977Z,102101.90
2019-03-31T09:48:16.763Z,102106.06
2019-03-31T09:51:15.286Z,102100.76
2019-03-31T09:53:48.989Z,102098.05
2019-03-31T09:56:20.299Z,102099.86
2019-03-31T09:58:51.512Z,102105.64
2019-03-31T10:01:22.882Z,102104.78
2019-03-31T10:03:53.677Z,102099.02
2019-03-31T10:06:30.545Z,102104.33
2019-03-31T10:08:56.581Z,102105.12
2019-03-31T10:11:27.196Z,102099.23
2019-03-31T10:14:04.578Z,102095.39
2019-03-31T10:16:37.884Z,102089.93
2019-03-31T10:19:13.051Z,102102.93
2019-03-31T10:21:57.209Z,102098.59
2019-03-31T10:24:36.583Z,102105.11
2019-03-31T10:27:23.622Z,102101.55
2019-03-31T10:29:59.036Z,102101.02
2019-03-31T10:32:42.775Z,102107.38
2019-03-31T10:35:20.603Z,102109.83
2019-03-31T10:37:58.973Z,102118.67
2019-03-31T10:40:30.682Z,102111.20
2019-03-31T10:43:01.445Z,102114.55
2019-03-31T10:45:32.090Z,102114.73
2019-03-31T10:48:02.685Z,102112.95
2019-03-31T10:50:33.356Z,102115.55
2019-03-31T10:53:03.969Z,102118.42
2019-03-31T10:55:34.755Z,102129.95
2019-03-31T10:58:05.432Z,102129.28
2019-03-31T11:00:38.291Z,102113.64
2019-03-31T11:03:09.501Z,102113.00
2019-03-31T11:05:40.142Z,102100.94
2019-03-31T11:08:10.759Z,102117.61
2019-03-31T11:10:41.857Z,102110.17
2019-03-31T11:13:12.458Z,102104.20
2019-03-31T11:15:43.142Z,102110.38
2019-03-31T11:18:13.748Z,102106.46
2019-03-31T11:20:44.430Z,102114.52
2019-03-31T11:23:19.996Z,102120.55
2019-03-31T11:25:50.618Z,102119.84
2019-03-31T11:28:21.200Z,102118.10
2019-03-31T11:30:51.836Z,102124.22
2019-03-31T11:33:22.414Z,102125.58
2019-03-31T11:35:53.017Z,102121.11
2019-03-31T11:38:23.591Z,102125.95
2019-03-31T11:40:54.243Z,102119.18
2019-03-31T11:43:24.831Z,102125.34
2019-03-31T11:45:55.649Z,102114.31
2019-03-31T11:48:26.783Z,102127.63
2019-03-31T11:51:00.332Z,102124.66
2019-03-31T11:53:30.167Z,102123.27
2019-03-31T11:56:02.660Z,102126.72
2019-03-31T11:58:33.461Z,102128.66
2019-03-31T12:01:04.089Z,102129.59
2019-03-31T12:03:34.674Z,102129.31
2019-03-31T12:06:05.301Z,102130.45
2019-03-31T12:08:35.891Z,102135.83
2019-03-31T12:11:06.477Z,102123.92
2019-03-31T12:13:37.066Z,102121.97
2019-03-31T12:16:08.010Z,102126.83
2019-03-31T12:18:38.571Z,102121.37
2019-03-31T12:21:09.183Z,102125.34
2019-03-31T12:23:39.810Z,102116.09
2019-03-31T12:26:10.454Z,102119.19
2019-03-31T12:28:41.013Z,102120.42
2019-03-31T12:31:14.648Z,102112.77
2019-03-31T12:33:45.216Z,102111.53
2019-03-31T12:36:15.848Z,102112.25
2019-03-31T12:38:46.443Z,102125.69
2019-03-31T12:41:17.056Z,102110.39
2019-03-31T12:43:47.648Z,102107.69
2019-03-31T12:46:18.250Z,102114.86
2019-03-31T12:48:48.958Z,102122.19
2019-03-31T12:51:19.542Z,102110.40
2019-03-31T12:53:51.282Z,102116.17
2019-03-31T12:56:22.056Z,102122.59
2019-03-31T12:58:52.662Z,102106.16
2019-03-31T13:01:23.301Z,102114.42
2019-03-31T13:03:53.885Z,102108.02
2019-03-31T13:06:24.521Z,102112.98
2019-03-31T13:08:55.110Z,102121.98
2019-03-31T13:11:25.722Z,102108.74
2019-03-31T13:13:56.297Z,102108.74
2019-03-31T13:16:26.910Z,102123.54
2019-03-31T13:18:57.481Z,102124.14
2019-03-31T13:21:28.098Z,102121.97
2019-03-31T13:23:58.754Z,102124.34
2019-03-31T13:26:31.302Z,102113.28
2019-03-31T13:29:02.449Z,102114.31
2019-03-31T13:31:33.074Z,102109.59
2019-03-31T13:34:03.748Z,102106.97
2019-03-31T13:36:34.394Z,102104.41
2019-03-31T13:39:07.356Z,102111.84
2019-03-31T13:41:37.905Z,102119.20
2019-03-31T13:44:08.520Z,102101.47
2019-03-31T13:46:39.115Z,102113.72
2019-03-31T13:49:09.727Z,102107.51
2019-03-31T13:51:40.411Z,102114.33
2019-03-31T13:54:10.971Z,102183.12
2019-03-31T13:56:42.811Z,102116.08
2019-03-31T13:59:13.837Z,102117.73
2019-03-31T14:01:44.449Z,102108.45
2019-03-31T14:04:15.039Z,102111.53
2019-03-31T14:06:45.578Z,102101.51
2019-03-31T14:09:16.187Z,102107.70
2019-03-31T14:11:48.559Z,102098.16
2019-03-31T14:14:19.313Z,102092.52
2019-03-31T14:16:49.878Z,102096.60
2019-03-31T14:19:20.451Z,102104.91
2019-03-31T14:21:51.072Z,102100.77
2019-03-31T14:24:21.727Z,102101.70
2019-03-31T14:26:52.290Z,102101.70
2019-03-31T14:29:22.923Z,102107.70
2019-03-31T14:31:53.506Z,102108.66
2019-03-31T14:34:24.136Z,102108.66
2019-03-31T14:36:54.800Z,102093.45
2019-03-31T14:39:25.378Z,102111.13
2019-03-31T14:41:55.963Z,102125.46
2019-03-31T14:44:26.592Z,102098.42
2019-03-31T14:46:57.146Z,102098.42
2019-03-31T14:49:27.871Z,102105.01
2019-03-31T14:52:01.352Z,102096.17
2019-03-31T14:54:30.792Z,102089.22
2019-03-31T14:57:01.576Z,102094.94
2019-03-31T14:59:32.188Z,102087.83
2019-03-31T15:02:02.764Z,102083.21
2019-03-31T15:04:33.402Z,102086.97
2019-03-31T15:07:03.984Z,102085.46
2019-03-31T15:09:34.577Z,102093.36
2019-03-31T15:12:05.200Z,102099.21
2019-03-31T15:14:35.795Z,102095.95
2019-03-31T15:17:06.360Z,102097.48
2019-03-31T15:19:36.964Z,102046.94
2019-03-31T15:22:07.613Z,102075.84
2019-03-31T15:24:38.188Z,102092.28
2019-03-31T15:27:08.798Z,102102.69
2019-03-31T15:29:39.459Z,102102.55
2019-03-31T15:32:10.022Z,102098.45
2019-03-31T15:34:40.629Z,102098.45
2019-03-31T15:37:11.206Z,102112.64
2019-03-31T15:39:41.808Z,102103.03
2019-03-31T15:42:12.412Z,102101.98
2019-03-31T15:44:43.002Z,102101.77
2019-03-31T15:47:13.608Z,102108.15
2019-03-31T15:49:45.908Z,102108.15
2019-03-31T15:52:16.509Z,102103.81
2019-03-31T15:54:47.140Z,102102.94
2019-03-31T15:57:17.702Z,102102.12
2019-03-31T15:59:54.275Z,102097.89
2019-03-31T16:02:26.219Z,102120.73
2019-03-31T16:04:56.818Z,102077.30
2019-03-31T16:07:27.410Z,102107.86
2019-03-31T16:09:57.584Z,102116.75
2019-03-31T16:12:27.633Z,102119.28
2019-03-31T16:14:57.741Z,102122.38
2019-03-31T16:17:27.792Z,102121.20
2019-03-31T16:19:57.891Z,102121.20
2019-03-31T16:22:27.938Z,102121.19
2019-03-31T16:24:59.068Z,102120.80
2019-03-31T16:27:29.158Z,102128.45
2019-03-31T16:29:59.243Z,102114.87
2019-03-31T16:32:29.328Z,102114.87
2019-03-31T16:34:59.427Z,102118.93
2019-03-31T16:37:29.490Z,102119.62
2019-03-31T16:39:59.500Z,102125.08
2019-03-31T16:42:29.629Z,102116.94
2019-03-31T16:44:59.682Z,102120.63
2019-03-31T16:47:29.759Z,102117.99
2019-03-31T16:49:59.840Z,102118.13
2019-03-31T16:52:30.022Z,102118.13
2019-03-31T16:55:00.103Z,102116.89
2019-03-31T16:57:30.197Z,102120.73
2019-03-31T17:00:00.408Z,102123.17
2019-03-31T17:02:30.469Z,102127.67
2019-03-31T17:05:00.547Z,102126.61
2019-03-31T17:07:30.843Z,102130.36
2019-03-31T17:10:00.900Z,102130.36
2019-03-31T17:12:31.006Z,102130.14
2019-03-31T17:15:01.099Z,102139.48
2019-03-31T17:17:31.189Z,102139.48
2019-03-31T17:20:01.241Z,102134.59
2019-03-31T17:22:31.326Z,102127.17
2019-03-31T17:25:01.342Z,102126.02
2019-03-31T17:27:31.477Z,102126.02
2019-03-31T17:30:01.541Z,102130.67
2019-03-31T17:32:31.648Z,102138.33
2019-03-31T17:35:01.741Z,102135.64
2019-03-31T17:37:31.889Z,102143.58
2019-03-31T17:40:06.279Z,102145.76
2019-03-31T17:42:33.801Z,102145.89
2019-03-31T17:45:03.919Z,102150.73
2019-03-31T17:47:34.201Z,102152.18
2019-03-31T17:50:04.321Z,102148.15
2019-03-31T17:52:34.554Z,102154.27
2019-03-31T17:55:04.679Z,102152.37
2019-03-31T17:57:34.786Z,102160.43
2019-03-31T18:00:06.840Z,102154.23
2019-03-31T18:02:36.948Z,102165.61
2019-03-31T18:05:07.711Z,102170.89
2019-03-31T18:07:38.343Z,102173.92
2019-03-31T18:10:20.120Z,102166.11
2019-03-31T18:12:40.363Z,102169.59
2019-03-31T18:15:10.474Z,102176.29
2019-03-31T18:17:40.593Z,102181.16
2019-03-31T18:20:10.806Z,102185.47
2019-03-31T18:22:40.910Z,102196.94
2019-03-31T18:25:11.271Z,102204.22
2019-03-31T18:27:41.348Z,102209.35
2019-03-31T18:30:11.766Z,102210.61
2019-03-31T18:32:41.832Z,102202.34
2019-03-31T18:35:11.889Z,102215.50
2019-03-31T18:37:42.093Z,102228.41
2019-03-31T18:40:12.497Z,102225.73
2019-03-31T18:42:42.566Z,102227.31
2019-03-31T18:45:13.069Z,102234.45
2019-03-31T18:47:43.143Z,102237.83
2019-03-31T18:50:13.210Z,102234.66
2019-03-31T18:52:43.320Z,102245.29
2019-03-31T18:55:30.489Z,102241.47
2019-03-31T18:58:14.504Z,102246.48
2019-03-31T19:00:59.912Z,102250.45
2019-03-31T19:03:51.826Z,102248.75
2019-03-31T19:06:28.959Z,102253.96
2019-03-31T19:09:23.699Z,102248.42
2019-03-31T19:12:11.531Z,102252.44
2019-03-31T19:14:59.423Z,102259.52
2019-03-31T19:17:44.324Z,102262.11
2019-03-31T19:20:26.733Z,102263.48
2019-03-31T19:23:21.333Z,102261.08
2019-03-31T19:26:09.389Z,102263.02
2019-03-31T19:29:01.163Z,102267.48
2019-03-31T19:32:02.782Z,102272.42
2019-03-31T19:34:54.845Z,102273.09
2019-03-31T19:37:33.809Z,102274.63
2019-03-31T19:40:12.254Z,102279.41
2019-03-31T19:42:55.939Z,102276.98
2019-03-31T19:45:39.225Z,102276.20
2019-03-31T19:48:23.237Z,102276.02
2019-03-31T19:51:27.245Z,102278.98
2019-03-31T19:54:14.763Z,102285.73
2019-03-31T19:57:03.464Z,102291.16
2019-03-31T20:00:10.514Z,102297.49
2019-03-31T20:03:05.638Z,102304.82
2019-03-31T20:05:57.496Z,102303.69
2019-03-31T20:08:38.634Z,102307.03
2019-03-31T20:11:18.901Z,102314.67
2019-03-31T20:14:16.835Z,102313.15
2019-03-31T20:17:11.907Z,102310.34
2019-03-31T20:20:11.991Z,102308.61
2019-03-31T20:23:09.319Z,102310.05
2019-03-31T20:25:51.993Z,102312.34
2019-03-31T20:28:50.851Z,102314.05
2019-03-31T20:31:42.884Z,102313.75
2019-03-31T20:34:26.423Z,102310.31
2019-03-31T20:37:06.888Z,102314.91
2019-03-31T20:40:02.523Z,102315.75
2019-03-31T20:42:54.426Z,102315.54
2019-03-31T20:45:25.696Z,102315.92
2019-03-31T20:48:06.047Z,102319.95
2019-03-31T20:50:36.158Z,102322.85
2019-03-31T20:53:06.677Z,102322.11
2019-03-31T20:55:44.482Z,102318.56
2019-03-31T20:58:14.546Z,102327.01
2019-03-31T21:00:44.579Z,102329.56
2019-03-31T21:03:14.612Z,102330.74
2019-03-31T21:05:44.679Z,102330.07
2019-03-31T21:08:14.735Z,102333.16
2019-03-31T21:10:44.812Z,102335.32
2019-03-31T21:13:14.889Z,102340.25
2019-03-31T21:15:44.980Z,102335.92
2019-03-31T21:18:15.036Z,102339.22
2019-03-31T21:20:45.120Z,102333.67
2019-03-31T21:23:15.211Z,102346.30
2019-03-31T21:25:45.232Z,102343.88
2019-03-31T21:28:15.297Z,102341.64
2019-03-31T21:30:45.371Z,102342.56
2019-03-31T21:33:15.436Z,102349.06
2019-03-31T21:35:48.435Z,102349.58
2019-03-31T21:38:17.325Z,102361.70
2019-03-31T21:40:47.420Z,102363.28
2019-03-31T21:43:17.611Z,102363.53
2019-03-31T21:45:47.792Z,102352.56
2019-03-31T21:48:17.881Z,102361.47
2019-03-31T21:50:47.920Z,102363.93
2019-03-31T21:53:18.091Z,102368.33
2019-03-31T21:55:48.117Z,102364.93
2019-03-31T21:58:18.202Z,102365.52
2019-03-31T22:00:56.289Z,102366.25
2019-03-31T22:03:26.421Z,102369.47
2019-03-31T22:05:56.451Z,102366.70
2019-03-31T22:08:26.493Z,102362.66
2019-03-31T22:10:56.594Z,102368.58
2019-03-31T22:13:26.842Z,102359.69
2019-03-31T22:15:57.043Z,102365.16
2019-03-31T22:18:27.168Z,102367.52
2019-03-31T22:20:57.286Z,102366.26
2019-03-31T22:23:27.362Z,102371.75
2019-03-31T22:25:57.436Z,102370.88
2019-03-31T22:28:27.543Z,102370.75
2019-03-31T22:30:57.552Z,102371.14
2019-03-31T22:33:27.554Z,102366.19
2019-03-31T22:36:15.358Z,102370.73
2019-03-31T22:38:45.390Z,102373.56
2019-03-31T22:41:15.410Z,102376.95
2019-03-31T22:43:45.510Z,102368.27
2019-03-31T22:46:15.504Z,102374.47
2019-03-31T22:48:45.554Z,102369.11
2019-03-31T22:51:15.549Z,102378.94
2019-03-31T22:53:45.586Z,102377.12
2019-03-31T22:56:15.608Z,102378.60
2019-03-31T22:58:45.666Z,102380.11
2019-03-31T23:01:15.744Z,102383.63
2019-03-31T23:03:45.732Z,102380.61
2019-03-31T23:06:15.777Z,102379.45
2019-03-31T23:08:45.774Z,102379.93
2019-03-31T23:11:15.804Z,102382.90
2019-03-31T23:13:45.827Z,102381.08
2019-03-31T23:16:15.900Z,102383.09
2019-03-31T23:18:45.904Z,102382.27
2019-03-31T23:21:15.927Z,102374.11
2019-03-31T23:23:45.918Z,102383.45
2019-03-31T23:26:15.960Z,102379.03
2019-03-31T23:28:48.821Z,102376.78
2019-03-31T23:31:18.978Z,102386.63
2019-03-31T23:33:49.170Z,102375.55
2019-03-31T23:36:19.270Z,102381.92
2019-03-31T23:38:49.263Z,102377.02
2019-03-31T23:41:19.320Z,102375.94
2019-03-31T23:43:49.312Z,102375.10
2019-03-31T23:46:19.344Z,102376.62
2019-03-31T23:48:49.342Z,102374.54
2019-03-31T23:51:19.352Z,102376.23
2019-03-31T23:53:49.373Z,102378.59
2019-03-31T23:56:19.381Z,102371.63
2019-03-31T23:58:49.366Z,102379.05
